Time;durP1;ratioP1;P1;durP2;ratioP2;P2;SDS_P1;SDS_P2;PMS_P1;PMS_P2;Temp;Humidity;BMP_temperature;BMP_pressure;BME280_temperature;BME280_humidity;BME280_pressure;Samples;Min_cycle;Max_cycle;Signal;HPM_P1;HPM_P2
2022/04/02 00:02:00;;;;;;;16.25;11.95;;;6.50;57.30;;;;;;5053029;28;20067;-57
2022/04/02 00:04:26;;;;;;;13.95;10.85;;;6.50;57.50;;;;;;5052313;28;20025;-53
2022/04/02 00:06:53;;;;;;;21.08;11.98;;;6.40;57.80;;;;;;5052992;28;20447;-53
2022/04/02 00:09:20;;;;;;;15.50;11.65;;;6.40;57.80;;;;;;5053698;28;20465;-48
2022/04/02 00:11:46;;;;;;;17.80;12.40;;;6.40;57.90;;;;;;5052705;28;20067;-52
2022/04/02 00:14:12;;;;;;;16.02;11.80;;;6.30;58.00;;;;;;5053068;28;20523;-56
2022/04/02 00:16:38;;;;;;;15.30;11.98;;;6.30;58.10;;;;;;5052888;28;20025;-50
2022/04/02 00:19:03;;;;;;;14.93;11.75;;;6.30;58.30;;;;;;5053204;28;20381;-49
2022/04/02 00:21:29;;;;;;;14.90;12.05;;;6.30;58.50;;;;;;5053448;28;20029;-50
2022/04/02 00:23:55;;;;;;;17.75;11.70;;;6.40;58.40;;;;;;5052752;28;20393;-53
2022/04/02 00:26:21;;;;;;;16.77;11.75;;;6.30;58.50;;;;;;5053108;28;20028;-51
2022/04/02 00:28:49;;;;;;;15.13;12.90;;;6.30;58.50;;;;;;5051616;28;20104;-50
2022/04/02 00:31:16;;;;;;;15.35;12.00;;;6.40;58.50;;;;;;5051586;28;20033;-57
2022/04/02 00:33:43;;;;;;;14.98;12.00;;;6.50;58.40;;;;;;5052423;28;20474;-52
2022/04/02 00:36:10;;;;;;;20.17;12.57;;;6.40;58.60;;;;;;5050753;28;20048;-50
2022/04/02 00:38:36;;;;;;;18.05;12.93;;;6.40;58.70;;;;;;5052328;28;20458;-50
2022/04/02 00:41:02;;;;;;;19.75;12.50;;;6.40;58.90;;;;;;5051675;28;20120;-55
2022/04/02 00:43:33;;;;;;;16.00;12.35;;;6.40;59.00;;;;;;5049432;28;20129;-56
2022/04/02 00:46:01;;;;;;;19.15;13.15;;;6.40;59.10;;;;;;5052483;28;20075;-50
2022/04/02 00:48:27;;;;;;;19.25;12.82;;;6.40;59.10;;;;;;5051056;28;20036;-52
2022/04/02 00:50:55;;;;;;;18.63;12.85;;;6.40;59.10;;;;;;5051955;28;20028;-50
2022/04/02 00:53:24;;;;;;;16.35;13.25;;;6.40;59.00;;;;;;5051060;28;20025;-52
2022/04/02 00:55:50;;;;;;;19.15;13.07;;;6.50;58.90;;;;;;5050538;28;20526;-52
2022/04/02 00:58:17;;;;;;;22.98;13.20;;;6.50;58.70;;;;;;5054824;28;20155;-52
2022/04/02 01:00:43;;;;;;;17.45;13.70;;;6.50;59.10;;;;;;5053668;28;20039;-54
2022/04/02 01:03:11;;;;;;;16.67;13.05;;;6.40;58.60;;;;;;5072163;28;20032;-51
2022/04/02 01:05:38;;;;;;;21.10;13.80;;;6.40;58.80;;;;;;5052855;28;20416;-56
2022/04/02 01:08:05;;;;;;;20.00;12.95;;;6.50;58.80;;;;;;5071696;28;20040;-52
2022/04/02 01:10:32;;;;;;;21.23;13.38;;;6.40;58.80;;;;;;5070814;28;20029;-52
2022/04/02 01:12:59;;;;;;;20.17;14.48;;;6.30;59.10;;;;;;5054308;28;20107;-50
2022/04/02 01:15:25;;;;;;;16.58;13.48;;;6.30;59.20;;;;;;5054631;28;20074;-52
2022/04/02 01:17:52;;;;;;;20.40;13.25;;;6.30;59.40;;;;;;5072206;28;20028;-51
2022/04/02 01:20:18;;;;;;;21.00;14.40;;;6.40;59.30;;;;;;5071902;28;20519;-53
2022/04/02 01:25:32;;;;;;;20.48;13.10;;;6.50;59.10;;;;;;5072192;28;20720;-52
2022/04/02 01:28:00;;;;;;;17.98;13.30;;;6.50;59.10;;;;;;5071190;28;20162;-52
2022/04/02 01:30:27;;;;;;;23.98;14.02;;;6.40;59.10;;;;;;5071974;28;20041;-56
2022/04/02 01:32:53;;;;;;;21.27;14.27;;;6.40;59.20;;;;;;5053601;28;20074;-50
2022/04/02 01:35:21;;;;;;;17.33;14.05;;;6.40;59.20;;;;;;5053575;28;20025;-53
2022/04/02 01:37:47;;;;;;;21.38;14.88;;;6.40;59.10;;;;;;5072239;28;20039;-53
2022/04/02 01:40:13;;;;;;;18.27;13.68;;;6.50;59.20;;;;;;5071755;28;20086;-50
2022/04/02 01:42:38;;;;;;;21.23;14.63;;;6.50;59.10;;;;;;5053078;28;20036;-52
2022/04/02 01:45:05;;;;;;;19.60;14.55;;;6.50;59.10;;;;;;5053651;28;20400;-50
2022/04/02 01:47:30;;;;;;;21.50;14.10;;;6.50;59.10;;;;;;5072036;28;20039;-55
2022/04/02 01:49:56;;;;;;;18.23;14.40;;;6.40;59.40;;;;;;5071263;28;20028;-54
2022/04/02 01:52:22;;;;;;;22.77;14.05;;;6.40;59.50;;;;;;5053806;28;20500;-51
2022/04/02 01:54:49;;;;;;;19.58;15.10;;;6.40;59.30;;;;;;5071165;28;20028;-53
2022/04/02 01:57:15;;;;;;;22.10;14.40;;;6.40;59.50;;;;;;5071636;28;20096;-54
2022/04/02 01:59:44;;;;;;;20.05;14.30;;;6.30;59.60;;;;;;5071270;28;20075;-55
2022/04/02 02:02:10;;;;;;;20.67;14.80;;;6.30;59.80;;;;;;5053738;28;20028;-50
2022/04/02 02:04:36;;;;;;;18.95;14.43;;;6.30;60.00;;;;;;5071239;28;20021;-54
2022/04/02 02:07:03;;;;;;;20.42;13.98;;;6.20;60.00;;;;;;5071658;28;20024;-56
2022/04/02 02:09:29;;;;;;;21.15;14.80;;;6.30;60.10;;;;;;5053403;28;20081;-52
2022/04/02 02:11:55;;;;;;;21.02;14.93;;;6.40;60.10;;;;;;5053161;28;20108;-54
2022/04/02 02:14:20;;;;;;;20.42;14.52;;;6.40;60.00;;;;;;5053383;28;20025;-53
2022/04/02 02:16:46;;;;;;;22.70;15.18;;;6.50;59.70;;;;;;5071130;28;20530;-54
2022/04/02 02:19:12;;;;;;;18.45;14.25;;;6.50;59.60;;;;;;5053623;28;20547;-55
2022/04/02 02:21:37;;;;;;;21.45;14.85;;;6.60;59.50;;;;;;5052842;28;20462;-53
2022/04/02 02:24:04;;;;;;;21.60;14.55;;;6.60;59.30;;;;;;5071548;28;20074;-53
2022/04/02 02:26:29;;;;;;;18.35;14.07;;;6.60;59.50;;;;;;5053272;28;20106;-55
2022/04/02 02:28:56;;;;;;;22.67;14.02;;;6.60;59.50;;;;;;5070763;28;20029;-49
2022/04/02 02:31:22;;;;;;;20.50;14.18;;;6.60;59.40;;;;;;5071164;28;20470;-55
2022/04/02 02:36:32;;;;;;;23.85;14.10;;;6.60;59.30;;;;;;5071686;28;20067;-53
2022/04/02 02:38:58;;;;;;;18.23;13.43;;;6.50;59.50;;;;;;5070861;28;20458;-52
2022/04/02 02:41:24;;;;;;;20.25;14.57;;;6.50;59.70;;;;;;5071103;28;20034;-52
2022/04/02 02:43:50;;;;;;;24.00;14.30;;;6.40;59.70;;;;;;5052963;28;20021;-51
2022/04/02 02:46:17;;;;;;;21.30;14.40;;;6.40;59.80;;;;;;5052901;28;20032;-50
2022/04/02 02:48:47;;;;;;;25.08;14.50;;;6.40;59.80;;;;;;5052827;28;20392;-54
2022/04/02 02:51:13;;;;;;;19.60;13.48;;;6.30;59.80;;;;;;5070840;28;20465;-54
2022/04/02 02:53:39;;;;;;;19.20;13.48;;;6.30;60.10;;;;;;5052887;28;20029;-60
2022/04/02 02:56:05;;;;;;;22.52;14.10;;;6.40;60.00;;;;;;5053350;28;20021;-50
2022/04/02 02:58:31;;;;;;;20.65;12.63;;;6.40;59.90;;;;;;5054777;28;20477;-52
2022/04/02 03:00:57;;;;;;;16.75;12.93;;;6.40;59.90;;;;;;5073895;28;20035;-57
2022/04/02 03:03:23;;;;;;;18.30;13.20;;;6.40;59.90;;;;;;5074820;28;20028;-49
2022/04/02 03:05:49;;;;;;;26.55;13.18;;;6.50;59.70;;;;;;5074072;28;20031;-54
2022/04/02 03:08:16;;;;;;;18.70;12.32;;;6.50;59.40;;;;;;5074679;28;20021;-50
2022/04/02 03:10:44;;;;;;;20.38;13.63;;;6.50;59.50;;;;;;5056041;28;20036;-55
2022/04/02 03:13:11;;;;;;;16.90;12.15;;;6.50;59.20;;;;;;5074226;28;20032;-51
2022/04/02 03:15:37;;;;;;;18.00;12.25;;;6.50;59.10;;;;;;5074238;28;20036;-55
2022/04/02 03:18:07;;;;;;;18.02;12.35;;;6.40;59.10;;;;;;5055544;28;20036;-50
2022/04/02 03:20:34;;;;;;;21.13;12.90;;;6.40;59.20;;;;;;5074356;28;20040;-54
2022/04/02 03:23:00;;;;;;;17.98;12.68;;;6.40;59.30;;;;;;5073901;28;20452;-54
2022/04/02 03:25:26;;;;;;;17.42;11.65;;;6.40;59.40;;;;;;5074447;28;20150;-52
2022/04/02 03:27:53;;;;;;;16.75;11.73;;;6.50;59.30;;;;;;5073697;28;20085;-49
2022/04/02 03:30:22;;;;;;;18.60;12.48;;;6.40;58.90;;;;;;5055913;28;20094;-53
2022/04/02 03:32:49;;;;;;;18.65;12.13;;;6.30;59.10;;;;;;5073435;28;20024;-51
2022/04/02 03:35:16;;;;;;;18.45;12.18;;;6.40;59.20;;;;;;5056028;28;20028;-55
2022/04/02 03:37:44;;;;;;;16.65;12.00;;;6.40;59.10;;;;;;5039468;28;20021;-59
2022/04/02 03:40:14;;;;;;;21.73;11.32;;;6.40;58.90;;;;;;5056352;28;20385;-53
2022/04/02 03:42:42;;;;;;;18.80;11.48;;;6.40;58.90;;;;;;5056176;28;20058;-53
2022/04/02 03:45:10;;;;;;;14.82;10.35;;;6.50;58.70;;;;;;5055738;28;20115;-51
2022/04/02 03:47:35;;;;;;;14.90;11.30;;;6.50;58.50;;;;;;5073285;28;20024;-53
2022/04/02 03:50:03;;;;;;;21.23;11.68;;;6.50;58.10;;;;;;5072816;28;20036;-51
2022/04/02 03:52:29;;;;;;;18.45;11.30;;;6.40;58.30;;;;;;5055452;28;20028;-54
2022/04/02 03:54:55;;;;;;;20.33;10.35;;;6.40;58.30;;;;;;5055188;28;20078;-55
2022/04/02 03:57:21;;;;;;;24.95;11.73;;;6.50;58.30;;;;;;5055810;28;20075;-53
2022/04/02 03:59:47;;;;;;;13.43;10.65;;;6.50;58.20;;;;;;5072936;28;20482;-54
2022/04/02 04:02:12;;;;;;;15.77;10.68;;;6.50;58.00;;;;;;5073451;28;20043;-54
2022/04/02 04:04:39;;;;;;;16.90;10.48;;;6.50;58.10;;;;;;5074016;28;20032;-55
2022/04/02 04:07:06;;;;;;;15.52;11.48;;;6.50;58.00;;;;;;5072702;28;20465;-55
2022/04/02 04:09:32;;;;;;;16.67;11.65;;;6.50;58.10;;;;;;5072312;28;20021;-55
2022/04/02 04:11:58;;;;;;;17.33;11.02;;;6.60;57.90;;;;;;5072673;28;20040;-51
2022/04/02 04:14:24;;;;;;;15.52;10.07;;;6.50;57.80;;;;;;5073141;28;20021;-54
2022/04/02 04:16:50;;;;;;;15.93;10.90;;;6.50;57.70;;;;;;5054952;28;20025;-55
2022/04/02 04:19:16;;;;;;;15.73;11.27;;;6.40;57.70;;;;;;5055180;28;20103;-53
2022/04/02 04:21:43;;;;;;;18.48;11.13;;;6.40;57.80;;;;;;5073115;28;20039;-55
2022/04/02 04:24:09;;;;;;;17.63;10.43;;;6.40;58.10;;;;;;5072424;28;20032;-53
2022/04/02 04:26:35;;;;;;;16.60;10.27;;;6.30;58.10;;;;;;5073048;28;20028;-53
2022/04/02 04:29:01;;;;;;;14.98;11.10;;;6.30;58.00;;;;;;5072741;28;20025;-54
2022/04/02 04:31:27;;;;;;;18.77;11.10;;;6.30;58.10;;;;;;5055004;28;20036;-55
2022/04/02 04:33:53;;;;;;;15.65;11.60;;;6.40;57.90;;;;;;5072296;28;20032;-54
2022/04/02 04:36:19;;;;;;;15.82;10.65;;;6.50;58.00;;;;;;5072625;28;20040;-50
2022/04/02 04:38:49;;;;;;;16.67;10.85;;;6.50;57.80;;;;;;5072733;28;20025;-54
2022/04/02 04:41:16;;;;;;;19.48;11.30;;;6.50;57.70;;;;;;5055096;28;20063;-54
2022/04/02 04:43:42;;;;;;;20.52;11.52;;;6.50;57.40;;;;;;5054829;28;20124;-51
2022/04/02 04:46:08;;;;;;;17.88;11.52;;;6.50;57.30;;;;;;5054323;28;20470;-51
2022/04/02 04:48:38;;;;;;;26.35;11.20;;;6.50;57.40;;;;;;5054858;28;20115;-51
2022/04/02 04:51:04;;;;;;;15.52;11.25;;;6.50;57.50;;;;;;5072105;28;20032;-54
2022/04/02 04:53:31;;;;;;;20.52;11.07;;;6.50;57.30;;;;;;5054397;28;20454;-54
2022/04/02 04:55:57;;;;;;;20.10;11.30;;;6.50;57.30;;;;;;5071638;28;20103;-54
2022/04/02 04:58:23;;;;;;;17.60;10.68;;;6.40;57.30;;;;;;5072050;28;20520;-51
2022/04/02 05:00:49;;;;;;;17.73;11.68;;;6.40;57.50;;;;;;5071576;28;20025;-55
2022/04/02 05:03:15;;;;;;;22.02;11.23;;;6.40;57.40;;;;;;5053882;28;20020;-55
2022/04/02 05:05:41;;;;;;;17.90;11.88;;;6.50;57.40;;;;;;5071353;28;20024;-53
2022/04/02 05:08:07;;;;;;;18.58;10.95;;;6.50;57.30;;;;;;5070779;28;20035;-53
2022/04/02 05:10:34;;;;;;;19.58;11.23;;;6.60;57.40;;;;;;5071391;28;20037;-54
2022/04/02 05:13:01;;;;;;;32.42;11.82;;;6.60;57.30;;;;;;5053048;28;20041;-55
2022/04/02 05:15:27;;;;;;;21.35;11.38;;;6.60;57.30;;;;;;5053789;28;20025;-55
2022/04/02 05:17:54;;;;;;;16.77;11.07;;;6.70;57.00;;;;;;5070207;28;20047;-54
2022/04/02 05:20:19;;;;;;;17.75;11.23;;;6.70;57.00;;;;;;5071359;28;20473;-52
2022/04/02 05:22:46;;;;;;;18.63;10.80;;;6.70;56.70;;;;;;5053253;28;20111;-53
2022/04/02 05:25:12;;;;;;;18.02;10.60;;;6.70;56.70;;;;;;5053260;28;20462;-52
2022/04/02 05:27:38;;;;;;;17.80;11.82;;;6.70;56.80;;;;;;5071056;28;20028;-51
2022/04/02 05:30:04;;;;;;;19.23;11.07;;;6.70;56.80;;;;;;5052518;28;20109;-50
2022/04/02 05:32:33;;;;;;;18.92;12.15;;;6.70;56.60;;;;;;5070904;28;20040;-50
2022/04/02 05:34:58;;;;;;;18.65;11.60;;;6.70;56.80;;;;;;5070649;28;20379;-52
2022/04/02 05:37:24;;;;;;;24.15;11.07;;;6.80;56.80;;;;;;5071439;28;20522;-56
2022/04/02 05:39:51;;;;;;;24.42;10.90;;;6.70;56.40;;;;;;5052894;28;20051;-55
2022/04/02 05:42:17;;;;;;;19.75;10.80;;;6.80;56.50;;;;;;5071147;28;20169;-56
2022/04/02 05:44:42;;;;;;;18.10;11.10;;;6.80;56.30;;;;;;5070639;28;20067;-54
2022/04/02 05:47:09;;;;;;;21.65;11.05;;;6.90;56.40;;;;;;5070421;28;20070;-57
2022/04/02 05:49:35;;;;;;;19.25;11.38;;;7.00;56.20;;;;;;5070838;28;20048;-54
2022/04/02 05:52:03;;;;;;;22.63;11.88;;;6.90;56.00;;;;;;5070648;28;20037;-53
2022/04/02 05:54:29;;;;;;;19.25;12.00;;;6.90;56.20;;;;;;5053046;28;20036;-51
2022/04/02 05:57:13;;;;;;;20.95;11.70;;;7.00;56.20;;;;;;5052196;28;20350;-52
2022/04/02 05:59:40;;;;;;;23.27;11.38;;;6.90;56.20;;;;;;5070414;28;20053;-57
2022/04/02 06:02:06;;;;;;;20.35;11.55;;;7.00;56.40;;;;;;5070269;28;20024;-53
2022/04/02 06:04:32;;;;;;;22.75;11.23;;;7.00;56.20;;;;;;5070238;28;20047;-52
2022/04/02 06:06:58;;;;;;;24.65;11.13;;;7.10;56.00;;;;;;5070502;28;20420;-49
2022/04/02 06:09:23;;;;;;;15.85;11.30;;;7.10;54.90;;;;;;5070941;28;20373;-53
2022/04/02 06:11:49;;;;;;;19.27;11.57;;;7.10;55.50;;;;;;5052706;28;20382;-51
2022/04/02 06:14:34;;;;;;;25.30;12.00;;;7.20;55.60;;;;;;5070412;28;20404;-52
2022/04/02 06:16:59;;;;;;;19.00;11.23;;;7.30;54.50;;;;;;5070089;28;20036;-52
2022/04/02 06:19:25;;;;;;;27.73;10.80;;;7.20;54.40;;;;;;5052706;28;20038;-51
2022/04/02 06:21:50;;;;;;;27.58;11.98;;;7.10;54.30;;;;;;5051534;28;20385;-52
2022/04/02 06:24:16;;;;;;;18.58;11.10;;;7.10;54.60;;;;;;5069793;28;20681;-56
2022/04/02 06:26:42;;;;;;;19.13;11.20;;;7.10;54.60;;;;;;5069923;28;20429;-51
2022/04/02 06:29:08;;;;;;;23.00;11.43;;;7.30;54.50;;;;;;5069849;28;20021;-52
2022/04/02 06:31:34;;;;;;;17.80;10.80;;;7.30;53.80;;;;;;5070009;28;20048;-58
2022/04/02 06:34:01;;;;;;;25.92;11.75;;;7.30;53.80;;;;;;5071685;28;20037;-51
2022/04/02 06:36:27;;;;;;;21.48;10.40;;;7.30;53.90;;;;;;5056176;28;20496;-50
2022/04/02 06:38:52;;;;;;;21.38;11.15;;;7.30;53.40;;;;;;5073182;28;20033;-55
2022/04/02 06:41:18;;;;;;;23.90;10.73;;;7.30;53.80;;;;;;5073357;28;20041;-55
2022/04/02 06:43:44;;;;;;;34.30;11.68;;;7.40;53.50;;;;;;5055497;28;20047;-53
2022/04/02 06:46:10;;;;;;;19.45;11.15;;;7.30;53.40;;;;;;5072643;28;20044;-58
2022/04/02 06:48:36;;;;;;;20.20;10.73;;;7.30;53.40;;;;;;5055911;28;20029;-53
2022/04/02 06:51:02;;;;;;;20.20;10.65;;;7.40;53.50;;;;;;5054819;28;20051;-54
2022/04/02 06:53:28;;;;;;;22.70;10.90;;;7.50;53.70;;;;;;5073544;28;20480;-50
2022/04/02 06:56:12;;;;;;;21.92;9.90;;;7.70;52.80;;;;;;5072667;28;20028;-51
2022/04/02 06:58:39;;;;;;;17.55;11.13;;;7.70;52.20;;;;;;5071324;28;20044;-56
2022/04/02 07:01:06;;;;;;;21.42;11.27;;;7.70;52.20;;;;;;5071568;28;20086;-52
2022/04/02 07:03:34;;;;;;;25.27;12.07;;;7.80;52.30;;;;;;5073485;28;20032;-52
2022/04/02 07:06:00;;;;;;;23.17;11.65;;;7.90;51.80;;;;;;5072178;28;20295;-58
2022/04/02 07:08:25;;;;;;;25.48;11.63;;;7.90;51.70;;;;;;5055211;28;20507;-53
2022/04/02 07:10:51;;;;;;;18.75;11.82;;;8.00;51.60;;;;;;5073311;28;20094;-56
2022/04/02 07:13:16;;;;;;;19.10;12.00;;;8.00;51.10;;;;;;5071174;28;20048;-51
2022/04/02 07:15:44;;;;;;;25.50;12.15;;;7.90;51.10;;;;;;5055107;28;20074;-57
2022/04/02 07:18:20;;;;;;;19.38;11.40;;;7.60;51.50;;;;;;5071710;28;20042;-55
2022/04/02 07:20:48;;;;;;;25.08;11.63;;;7.50;52.20;;;;;;5072346;28;20028;-56
2022/04/02 07:23:15;;;;;;;24.38;12.27;;;7.60;52.40;;;;;;5072032;28;20477;-54
2022/04/02 07:25:40;;;;;;;18.30;11.60;;;7.80;52.20;;;;;;5073275;28;20070;-56
2022/04/02 07:28:08;;;;;;;16.15;11.15;;;8.00;51.90;;;;;;5037658;28;20408;-54
2022/04/02 07:30:36;;;;;;;21.60;11.80;;;8.20;51.20;;;;;;5054578;28;20032;-55
2022/04/02 07:33:02;;;;;;;23.98;12.20;;;8.20;51.00;;;;;;5053536;28;20415;-49
2022/04/02 07:35:34;;;;;;;20.83;12.88;;;8.30;50.50;;;;;;5073273;28;20029;-53
2022/04/02 07:38:26;;;;;;;22.70;11.98;;;8.50;50.70;;;;;;5054583;28;20174;-53
2022/04/02 07:41:33;;;;;;;18.80;11.10;;;8.60;50.20;;;;;;5055169;28;20038;-52
2022/04/02 07:44:18;;;;;;;33.97;12.65;;;8.80;49.60;;;;;;4990420;28;20081;-55
2022/04/02 07:46:46;;;;;;;17.45;11.95;;;8.90;48.90;;;;;;4990052;28;20035;-58
2022/04/02 07:49:19;;;;;;;22.88;12.55;;;8.90;49.20;;;;;;4990668;28;20066;-54
2022/04/02 07:51:50;;;;;;;23.13;13.18;;;9.10;49.00;;;;;;4991172;28;20042;-51
2022/04/02 07:54:21;;;;;;;24.60;12.18;;;9.30;48.30;;;;;;4990375;28;20118;-55
2022/04/02 07:56:51;;;;;;;24.23;12.32;;;9.50;48.10;;;;;;4991122;28;20030;-52
2022/04/02 07:59:32;;;;;;;23.42;12.68;;;9.50;47.50;;;;;;4990800;28;20057;-50
2022/04/02 08:01:59;;;;;;;26.77;12.88;;;9.20;48.00;;;;;;4974954;28;20034;-53
2022/04/02 08:04:25;;;;;;;21.23;12.35;;;9.20;48.10;;;;;;4969452;28;20026;-52
2022/04/02 08:06:52;;;;;;;27.10;12.15;;;9.20;48.60;;;;;;4990673;28;20069;-54
2022/04/02 08:09:30;;;;;;;23.95;12.55;;;9.30;48.50;;;;;;4989238;28;20046;-56
2022/04/02 08:11:59;;;;;;;25.75;12.82;;;9.40;47.50;;;;;;4974632;28;20037;-54
2022/04/02 08:14:28;;;;;;;29.48;13.20;;;9.20;47.40;;;;;;5019846;28;20119;-54
2022/04/02 08:16:55;;;;;;;20.55;13.40;;;9.20;47.70;;;;;;5072149;28;20028;-58
2022/04/02 08:19:22;;;;;;;21.55;13.35;;;9.40;47.70;;;;;;5052760;28;20056;-52
2022/04/02 08:21:48;;;;;;;40.25;13.82;;;9.40;46.80;;;;;;5073098;28;20033;-53
2022/04/02 08:24:13;;;;;;;18.73;12.82;;;9.40;46.90;;;;;;5053998;28;20029;-55
2022/04/02 08:27:02;;;;;;;31.70;13.18;;;9.30;47.30;;;;;;5071929;28;20107;-57
2022/04/02 08:29:52;;;;;;;25.13;12.55;;;9.30;47.10;;;;;;5072048;28;20070;-54
2022/04/02 08:32:29;;;;;;;23.38;13.30;;;9.20;46.90;;;;;;5070975;28;20029;-54
2022/04/02 08:35:13;;;;;;;25.33;12.05;;;9.00;47.30;;;;;;5054124;28;20027;-55
2022/04/02 08:37:54;;;;;;;;;;;9.00;47.30;;;;;;5054430;28;20063;-55
2022/04/02 08:40:39;;;;;;;22.02;12.07;;;9.20;46.90;;;;;;5071734;28;19904;-57
2022/04/02 08:43:13;;;;;;;26.38;12.27;;;9.30;46.70;;;;;;5053595;28;20020;-51
2022/04/02 08:46:23;;;;;;;20.10;11.45;;;9.50;46.40;;;;;;5072315;28;20028;-52
2022/04/02 08:49:39;;;;;;;24.73;12.13;;;9.60;46.10;;;;;;5053355;28;20392;-53
2022/04/02 08:52:14;;;;;;;29.90;11.63;;;9.60;45.50;;;;;;4995073;28;20087;-53
2022/04/02 08:54:44;;;;;;;21.38;12.32;;;9.60;47.10;;;;;;5072715;28;20028;-54
2022/04/02 08:57:29;;;;;;;19.50;12.43;;;9.70;46.30;;;;;;5071425;28;20027;-58
2022/04/02 09:00:09;;;;;;;17.75;11.43;;;9.90;45.90;;;;;;5072512;28;20053;-53
2022/04/02 09:02:53;;;;;;;19.60;11.25;;;9.90;45.20;;;;;;5071828;28;20031;-55
2022/04/02 09:05:55;;;;;;;22.73;11.38;;;9.90;45.10;;;;;;5071321;28;20119;-56
2022/04/02 09:08:39;;;;;;;17.90;10.30;;;9.90;44.60;;;;;;5052421;28;20124;-56
2022/04/02 09:11:23;;;;;;;;;;;9.80;43.90;;;;;;5053213;28;20029;-56
2022/04/02 09:13:52;;;;;;;31.05;11.02;;;9.60;44.50;;;;;;5072259;28;19912;-56
2022/04/02 09:16:26;;;;;;;21.10;10.75;;;9.80;45.30;;;;;;5071191;28;20029;-56
2022/04/02 09:18:52;;;;;;;17.70;10.93;;;10.00;44.80;;;;;;5054194;28;20052;-57
2022/04/02 09:21:57;;;;;;;18.70;10.18;;;10.20;44.40;;;;;;5070149;28;20129;-59
2022/04/02 09:24:40;;;;;;;17.65;8.90;;;10.20;43.50;;;;;;5063553;28;20165;-60
2022/04/02 09:27:40;;;;;;;30.23;10.63;;;10.30;43.60;;;;;;5066931;28;20025;-55
2022/04/02 09:30:43;;;;;;;22.70;10.75;;;10.30;43.20;;;;;;5070427;28;20063;-55
2022/04/02 09:33:30;;;;;;;16.30;9.77;;;10.30;42.60;;;;;;5049696;28;20036;-54
2022/04/02 09:36:37;;;;;;;14.20;9.82;;;10.30;43.00;;;;;;5052309;28;20028;-57
2022/04/02 09:39:14;;;;;;;20.83;10.32;;;10.40;42.60;;;;;;5071143;28;20028;-52
2022/04/02 09:41:49;;;;;;;13.75;8.55;;;10.10;42.60;;;;;;5068793;28;20031;-51
2022/04/02 09:45:00;;;;;;;16.90;9.15;;;9.90;43.30;;;;;;5052718;28;20032;-52
2022/04/02 09:47:48;;;;;;;19.52;10.13;;;10.00;42.90;;;;;;5047060;28;20040;-52
2022/04/02 09:50:25;;;;;;;21.83;9.65;;;10.10;43.20;;;;;;5068723;28;20036;-56
2022/04/02 09:53:09;;;;;;;23.33;10.63;;;10.30;43.10;;;;;;5053064;28;20099;-56
2022/04/02 09:56:01;;;;;;;19.65;10.60;;;10.30;42.90;;;;;;5071600;28;20025;-53
2022/04/02 09:59:01;;;;;;;19.20;10.63;;;10.20;43.00;;;;;;5037965;28;20060;-52
2022/04/02 10:02:05;;;;;;;20.38;11.10;;;10.20;43.20;;;;;;5069755;28;20032;-55
2022/04/02 10:04:54;;;;;;;22.75;10.95;;;10.20;43.30;;;;;;5069110;28;20024;-48
2022/04/02 10:07:27;;;;;;;20.20;11.43;;;10.10;43.10;;;;;;5051501;28;20078;-54
2022/04/02 10:09:55;;;;;;;22.08;11.70;;;9.90;44.10;;;;;;5074882;28;20025;-53
2022/04/02 10:12:26;;;;;;;22.55;11.55;;;9.90;43.90;;;;;;5056944;28;20036;-54
2022/04/02 10:14:59;;;;;;;24.05;12.35;;;10.00;43.40;;;;;;5074348;28;20051;-57
2022/04/02 10:17:30;;;;;;;22.17;11.95;;;10.00;43.50;;;;;;5073716;28;20051;-55
2022/04/02 10:19:57;;;;;;;20.15;11.45;;;10.00;44.20;;;;;;5055757;28;20036;-56
2022/04/02 10:22:44;;;;;;;20.55;12.50;;;10.00;43.10;;;;;;5072407;28;20035;-51
2022/04/02 10:25:15;;;;;;;23.33;11.50;;;9.70;43.70;;;;;;5056223;28;20134;-53
2022/04/02 10:27:50;;;;;;;17.95;11.63;;;9.70;44.20;;;;;;5073318;28;20044;-52
2022/04/02 10:30:18;;;;;;;24.70;11.73;;;9.60;44.30;;;;;;5051805;28;20039;-55
2022/04/02 10:32:54;;;;;;;21.48;10.55;;;9.70;44.20;;;;;;5074209;28;20051;-54
2022/04/02 10:35:23;;;;;;;21.13;11.15;;;9.60;44.10;;;;;;5074647;28;20146;-54
2022/04/02 10:38:16;;;;;;;23.15;11.20;;;9.50;44.30;;;;;;5055470;28;20059;-54
2022/04/02 10:40:53;;;;;;;23.83;10.95;;;9.20;44.80;;;;;;5072944;28;20181;-53
2022/04/02 10:43:29;;;;;;;20.73;10.75;;;9.20;45.10;;;;;;5055016;28;20029;-52
2022/04/02 10:45:58;;;;;;;20.50;10.45;;;9.10;45.10;;;;;;5072204;28;20021;-53
2022/04/02 10:48:29;;;;;;;27.50;11.43;;;8.80;45.10;;;;;;5072680;28;20028;-52
2022/04/02 10:50:56;;;;;;;22.23;10.18;;;8.80;45.30;;;;;;5072649;28;20075;-57
2022/04/02 10:53:23;;;;;;;18.20;10.88;;;8.80;45.60;;;;;;5038419;28;20039;-53
2022/04/02 10:56:00;;;;;;;22.90;10.35;;;9.00;45.50;;;;;;5053957;28;20062;-53
2022/04/02 10:58:30;;;;;;;21.05;11.35;;;9.10;45.10;;;;;;5054283;28;20089;-52
2022/04/02 11:01:03;;;;;;;25.48;12.93;;;9.00;45.20;;;;;;5073084;28;20063;-58
2022/04/02 11:03:42;;;;;;;26.23;11.15;;;9.10;45.40;;;;;;5056339;28;20029;-51
2022/04/02 11:06:08;;;;;;;21.83;10.23;;;9.20;45.00;;;;;;5055010;28;20496;-51
2022/04/02 11:08:34;;;;;;;25.65;11.10;;;9.00;45.10;;;;;;5056472;28;20020;-54
2022/04/02 11:11:27;;;;;;;23.90;10.60;;;8.80;45.40;;;;;;5073746;28;20546;-52
2022/04/02 11:14:02;;;;;;;20.65;10.02;;;8.70;45.80;;;;;;5056441;28;20117;-52
2022/04/02 11:16:40;;;;;;;19.45;11.07;;;8.60;45.80;;;;;;5073935;28;20016;-51
2022/04/02 11:22:07;;;;;;;24.40;10.02;;;8.60;45.90;;;;;;5073972;28;20032;-51
2022/04/02 11:24:49;;;;;;;26.17;12.82;;;8.80;45.80;;;;;;5073603;28;20036;-54
2022/04/02 11:27:17;;;;;;;19.73;10.55;;;9.00;45.60;;;;;;5073375;28;20029;-54
2022/04/02 11:29:49;;;;;;;32.35;10.27;;;9.20;45.40;;;;;;5055975;28;20059;-52
2022/04/02 11:32:21;;;;;;;21.42;9.95;;;9.20;44.70;;;;;;5073139;28;20441;-52
2022/04/02 11:34:48;;;;;;;22.70;11.25;;;9.20;44.70;;;;;;5074308;28;20057;-53
2022/04/02 11:37:19;;;;;;;23.85;10.48;;;9.10;44.80;;;;;;5073152;28;20020;-50
2022/04/02 11:39:52;;;;;;;24.45;9.45;;;9.00;45.10;;;;;;5073467;28;20489;-53
2022/04/02 11:42:25;;;;;;;16.70;10.18;;;8.90;45.10;;;;;;5073486;28;20032;-50
2022/04/02 11:47:40;;;;;;;25.83;11.35;;;8.80;45.90;;;;;;5073490;28;20058;-51
2022/04/02 11:50:08;;;;;;;25.17;12.07;;;8.90;45.80;;;;;;5053365;28;20047;-55
2022/04/02 11:53:07;;;;;;;17.92;10.93;;;8.80;46.00;;;;;;5054865;28;20120;-50
2022/04/02 11:55:37;;;;;;;21.30;10.23;;;8.80;46.20;;;;;;5028710;28;20119;-53
2022/04/02 11:58:12;;;;;;;25.48;10.73;;;8.80;46.00;;;;;;5037998;28;20370;-55
2022/04/02 12:00:44;;;;;;;19.98;10.63;;;8.70;46.80;;;;;;5071741;28;20499;-51
2022/04/02 12:03:29;;;;;;;22.23;11.00;;;8.70;46.30;;;;;;5070037;28;20109;-58
2022/04/02 12:05:55;;;;;;;21.70;10.90;;;8.80;47.20;;;;;;5072648;28;20434;-56
2022/04/02 12:08:29;;;;;;;19.27;10.60;;;8.70;46.60;;;;;;5052279;28;20052;-52
2022/04/02 12:10:55;;;;;;;;;;;8.70;47.00;;;;;;5053370;28;20402;-54
2022/04/02 12:13:21;;;;;;;22.85;12.35;;;8.70;47.20;;;;;;5052135;28;19916;-52
2022/04/02 12:16:13;;;;;;;19.15;11.52;;;8.70;47.10;;;;;;5053190;28;20020;-54
2022/04/02 12:18:59;;;;;;;19.88;10.77;;;8.60;47.60;;;;;;5045278;28;20043;-54
2022/04/02 12:21:42;;;;;;;20.63;10.93;;;8.60;47.50;;;;;;5071561;28;20119;-53
2022/04/02 12:24:11;;;;;;;21.33;10.88;;;8.50;47.50;;;;;;5053489;28;20035;-53
2022/04/02 12:26:38;;;;;;;18.33;11.15;;;8.50;47.50;;;;;;5054083;28;20020;-52
2022/04/02 12:29:04;;;;;;;27.23;14.13;;;8.50;47.60;;;;;;5071016;28;20078;-53
2022/04/02 12:31:31;;;;;;;24.95;12.48;;;8.50;48.00;;;;;;5051454;28;20025;-52
2022/04/02 12:34:01;;;;;;;20.70;12.00;;;8.50;48.10;;;;;;5052886;28;20028;-53
2022/04/02 12:36:42;;;;;;;20.15;11.45;;;8.50;48.10;;;;;;5070473;28;20028;-57
2022/04/02 12:39:10;;;;;;;22.20;12.52;;;8.50;48.40;;;;;;5053376;28;20024;-50
2022/04/02 12:41:47;;;;;;;21.52;13.20;;;8.50;48.30;;;;;;5053317;28;20060;-55
2022/04/02 12:44:13;;;;;;;17.48;11.90;;;8.50;48.40;;;;;;5052886;28;20039;-56
2022/04/02 12:46:39;;;;;;;19.27;11.25;;;8.60;48.30;;;;;;5053006;28;20021;-54
2022/04/02 12:49:04;;;;;;;19.27;12.50;;;8.50;48.60;;;;;;5070944;28;20392;-59
2022/04/02 12:51:30;;;;;;;18.15;12.68;;;8.60;48.40;;;;;;5071576;28;20123;-54
2022/04/02 12:54:03;;;;;;;21.50;11.70;;;8.70;48.20;;;;;;5070400;28;20036;-55
2022/04/02 12:56:32;;;;;;;24.27;12.60;;;8.70;47.90;;;;;;5071887;28;20485;-55
2022/04/02 12:59:00;;;;;;;18.55;11.95;;;8.70;48.00;;;;;;5068979;28;20067;-52
2022/04/02 13:01:44;;;;;;;18.98;12.10;;;8.70;48.10;;;;;;5035832;28;20112;-50
2022/04/02 13:04:11;;;;;;;21.25;12.45;;;8.50;48.10;;;;;;5069343;28;20074;-52
2022/04/02 13:06:48;;;;;;;19.08;13.10;;;8.40;48.40;;;;;;5051370;28;20024;-54
2022/04/02 13:09:21;;;;;;;24.00;12.02;;;8.40;48.60;;;;;;5070440;28;20056;-54